sensor_id;sensor_type;location;lat;lon;timestamp;P1;durP1;ratioP1;P2;durP2;ratioP2
82495;SDS011;72133;42.522;24.800;2023-08-17T00:00:06;11.02;;;9.88;;
82495;SDS011;72133;42.522;24.800;2023-08-17T00:02:38;12.23;;;10.57;;
82495;SDS011;72133;42.522;24.800;2023-08-17T00:05:04;12.48;;;11.23;;
82495;SDS011;72133;42.522;24.800;2023-08-17T00:07:31;12.40;;;11.13;;
82495;SDS011;72133;42.522;24.800;2023-08-17T00:09:58;12.13;;;10.38;;
82495;SDS011;72133;42.522;24.800;2023-08-17T00:12:24;14.10;;;10.05;;
82495;SDS011;72133;42.522;24.800;2023-08-17T00:14:51;11.02;;;9.93;;
82495;SDS011;72133;42.522;24.800;2023-08-17T00:17:17;11.27;;;9.88;;
82495;SDS011;72133;42.522;24.800;2023-08-17T00:19:43;13.98;;;11.90;;
82495;SDS011;72133;42.522;24.800;2023-08-17T00:22:09;12.00;;;10.90;;
82495;SDS011;72133;42.522;24.800;2023-08-17T00:24:35;12.02;;;10.75;;
82495;SDS011;72133;42.522;24.800;2023-08-17T00:27:02;13.18;;;11.63;;
82495;SDS011;72133;42.522;24.800;2023-08-17T00:29:29;16.58;;;10.40;;
82495;SDS011;72133;42.522;24.800;2023-08-17T00:31:55;13.82;;;10.00;;
82495;SDS011;72133;42.522;24.800;2023-08-17T00:34:21;11.85;;;10.07;;
82495;SDS011;72133;42.522;24.800;2023-08-17T00:36:47;12.48;;;10.88;;
82495;SDS011;72133;42.522;24.800;2023-08-17T00:39:14;15.98;;;9.98;;
82495;SDS011;72133;42.522;24.800;2023-08-17T00:41:40;11.63;;;9.68;;
82495;SDS011;72133;42.522;24.800;2023-08-17T00:44:06;15.43;;;10.20;;
82495;SDS011;72133;42.522;24.800;2023-08-17T00:46:32;11.35;;;10.25;;
82495;SDS011;72133;42.522;24.800;2023-08-17T00:48:59;12.82;;;9.63;;
82495;SDS011;72133;42.522;24.800;2023-08-17T00:51:26;13.55;;;11.18;;
82495;SDS011;72133;42.522;24.800;2023-08-17T00:53:56;12.27;;;9.98;;
82495;SDS011;72133;42.522;24.800;2023-08-17T00:56:23;10.95;;;9.75;;
82495;SDS011;72133;42.522;24.800;2023-08-17T00:58:49;11.20;;;10.02;;
82495;SDS011;72133;42.522;24.800;2023-08-17T01:01:16;12.32;;;9.65;;
82495;SDS011;72133;42.522;24.800;2023-08-17T01:03:43;12.57;;;10.27;;
82495;SDS011;72133;42.522;24.800;2023-08-17T01:06:09;10.35;;;9.35;;
82495;SDS011;72133;42.522;24.800;2023-08-17T01:08:35;10.25;;;9.15;;
82495;SDS011;72133;42.522;24.800;2023-08-17T01:11:11;11.35;;;9.48;;
82495;SDS011;72133;42.522;24.800;2023-08-17T01:14:02;10.52;;;9.25;;
82495;SDS011;72133;42.522;24.800;2023-08-17T01:16:35;11.05;;;9.13;;
82495;SDS011;72133;42.522;24.800;2023-08-17T01:19:04;9.18;;;8.27;;
82495;SDS011;72133;42.522;24.800;2023-08-17T01:21:37;10.43;;;9.32;;
82495;SDS011;72133;42.522;24.800;2023-08-17T01:24:08;11.68;;;8.98;;
82495;SDS011;72133;42.522;24.800;2023-08-17T01:26:34;10.23;;;9.10;;
82495;SDS011;72133;42.522;24.800;2023-08-17T01:29:00;10.80;;;8.57;;
82495;SDS011;72133;42.522;24.800;2023-08-17T01:31:28;11.27;;;8.63;;
82495;SDS011;72133;42.522;24.800;2023-08-17T01:33:58;10.38;;;9.20;;
82495;SDS011;72133;42.522;24.800;2023-08-17T01:36:30;11.50;;;9.50;;
82495;SDS011;72133;42.522;24.800;2023-08-17T01:38:56;10.63;;;9.63;;
82495;SDS011;72133;42.522;24.800;2023-08-17T01:41:22;12.13;;;9.50;;
82495;SDS011;72133;42.522;24.800;2023-08-17T01:43:49;9.68;;;8.73;;
82495;SDS011;72133;42.522;24.800;2023-08-17T01:46:16;10.13;;;9.18;;
82495;SDS011;72133;42.522;24.800;2023-08-17T01:48:43;11.38;;;9.13;;
82495;SDS011;72133;42.522;24.800;2023-08-17T01:51:10;9.95;;;8.40;;
82495;SDS011;72133;42.522;24.800;2023-08-17T01:53:37;9.43;;;8.20;;
82495;SDS011;72133;42.522;24.800;2023-08-17T01:56:03;10.38;;;8.88;;
82495;SDS011;72133;42.522;24.800;2023-08-17T01:58:29;10.52;;;8.20;;
82495;SDS011;72133;42.522;24.800;2023-08-17T02:00:55;11.77;;;8.90;;
82495;SDS011;72133;42.522;24.800;2023-08-17T02:03:22;10.48;;;9.38;;
82495;SDS011;72133;42.522;24.800;2023-08-17T02:05:48;10.05;;;8.15;;
82495;SDS011;72133;42.522;24.800;2023-08-17T02:08:14;9.55;;;8.63;;
82495;SDS011;72133;42.522;24.800;2023-08-17T02:10:40;11.13;;;9.30;;
82495;SDS011;72133;42.522;24.800;2023-08-17T02:13:06;12.02;;;9.65;;
82495;SDS011;72133;42.522;24.800;2023-08-17T02:15:37;13.18;;;9.60;;
82495;SDS011;72133;42.522;24.800;2023-08-17T02:18:04;11.45;;;10.27;;
82495;SDS011;72133;42.522;24.800;2023-08-17T02:20:30;12.15;;;10.65;;
82495;SDS011;72133;42.522;24.800;2023-08-17T02:22:56;11.60;;;10.38;;
82495;SDS011;72133;42.522;24.800;2023-08-17T02:25:22;11.35;;;10.23;;
82495;SDS011;72133;42.522;24.800;2023-08-17T02:27:48;12.35;;;10.60;;
82495;SDS011;72133;42.522;24.800;2023-08-17T02:30:14;14.73;;;13.25;;
82495;SDS011;72133;42.522;24.800;2023-08-17T02:32:41;12.25;;;10.13;;
82495;SDS011;72133;42.522;24.800;2023-08-17T02:35:07;11.18;;;9.82;;
82495;SDS011;72133;42.522;24.800;2023-08-17T02:37:33;12.27;;;10.93;;
82495;SDS011;72133;42.522;24.800;2023-08-17T02:39:59;11.80;;;10.63;;
82495;SDS011;72133;42.522;24.800;2023-08-17T02:42:26;13.32;;;10.48;;
82495;SDS011;72133;42.522;24.800;2023-08-17T02:44:52;11.27;;;8.95;;
82495;SDS011;72133;42.522;24.800;2023-08-17T02:47:18;10.38;;;9.38;;
82495;SDS011;72133;42.522;24.800;2023-08-17T02:49:44;11.23;;;9.80;;
82495;SDS011;72133;42.522;24.800;2023-08-17T02:52:10;12.15;;;9.27;;
82495;SDS011;72133;42.522;24.800;2023-08-17T02:54:36;11.00;;;9.45;;
82495;SDS011;72133;42.522;24.800;2023-08-17T02:57:03;14.80;;;9.70;;
82495;SDS011;72133;42.522;24.800;2023-08-17T02:59:29;10.52;;;9.45;;
82495;SDS011;72133;42.522;24.800;2023-08-17T03:01:55;12.20;;;9.75;;
82495;SDS011;72133;42.522;24.800;2023-08-17T03:04:22;10.20;;;9.20;;
82495;SDS011;72133;42.522;24.800;2023-08-17T03:06:49;13.70;;;10.13;;
82495;SDS011;72133;42.522;24.800;2023-08-17T03:09:15;9.93;;;8.93;;
82495;SDS011;72133;42.522;24.800;2023-08-17T03:11:42;15.38;;;10.25;;
82495;SDS011;72133;42.522;24.800;2023-08-17T03:14:08;12.82;;;10.02;;
82495;SDS011;72133;42.522;24.800;2023-08-17T03:16:34;10.57;;;9.25;;
82495;SDS011;72133;42.522;24.800;2023-08-17T03:19:00;11.82;;;9.88;;
82495;SDS011;72133;42.522;24.800;2023-08-17T03:21:26;15.00;;;10.32;;
82495;SDS011;72133;42.522;24.800;2023-08-17T03:23:52;15.98;;;11.68;;
82495;SDS011;72133;42.522;24.800;2023-08-17T03:26:19;12.60;;;10.60;;
82495;SDS011;72133;42.522;24.800;2023-08-17T03:28:45;11.68;;;10.00;;
82495;SDS011;72133;42.522;24.800;2023-08-17T03:31:11;11.88;;;10.25;;
82495;SDS011;72133;42.522;24.800;2023-08-17T03:33:37;12.40;;;10.38;;
82495;SDS011;72133;42.522;24.800;2023-08-17T03:36:05;10.80;;;9.68;;
82495;SDS011;72133;42.522;24.800;2023-08-17T03:38:32;13.40;;;9.77;;
82495;SDS011;72133;42.522;24.800;2023-08-17T03:40:58;15.52;;;10.85;;
82495;SDS011;72133;42.522;24.800;2023-08-17T03:43:24;13.52;;;9.77;;
82495;SDS011;72133;42.522;24.800;2023-08-17T03:45:52;12.52;;;9.57;;
82495;SDS011;72133;42.522;24.800;2023-08-17T03:48:18;13.55;;;10.77;;
82495;SDS011;72133;42.522;24.800;2023-08-17T03:50:44;10.23;;;9.23;;
82495;SDS011;72133;42.522;24.800;2023-08-17T03:53:10;10.45;;;8.77;;
82495;SDS011;72133;42.522;24.800;2023-08-17T03:55:36;11.88;;;9.27;;
82495;SDS011;72133;42.522;24.800;2023-08-17T03:58:03;12.18;;;9.32;;
82495;SDS011;72133;42.522;24.800;2023-08-17T04:00:29;10.70;;;9.60;;
82495;SDS011;72133;42.522;24.800;2023-08-17T04:02:55;11.40;;;9.93;;
82495;SDS011;72133;42.522;24.800;2023-08-17T04:05:21;11.00;;;9.55;;
82495;SDS011;72133;42.522;24.800;2023-08-17T04:07:47;11.30;;;9.27;;
82495;SDS011;72133;42.522;24.800;2023-08-17T04:10:13;11.40;;;9.90;;
82495;SDS011;72133;42.522;24.800;2023-08-17T04:12:40;11.70;;;9.85;;
82495;SDS011;72133;42.522;24.800;2023-08-17T04:15:06;10.50;;;9.27;;
82495;SDS011;72133;42.522;24.800;2023-08-17T04:17:32;10.90;;;9.40;;
82495;SDS011;72133;42.522;24.800;2023-08-17T04:19:58;10.00;;;8.98;;
82495;SDS011;72133;42.522;24.800;2023-08-17T04:22:24;10.85;;;9.35;;
82495;SDS011;72133;42.522;24.800;2023-08-17T04:24:51;9.93;;;8.73;;
82495;SDS011;72133;42.522;24.800;2023-08-17T04:27:17;12.50;;;9.52;;
82495;SDS011;72133;42.522;24.800;2023-08-17T04:29:43;11.07;;;9.18;;
82495;SDS011;72133;42.522;24.800;2023-08-17T04:32:13;12.30;;;9.68;;
82495;SDS011;72133;42.522;24.800;2023-08-17T04:34:41;11.20;;;9.68;;
82495;SDS011;72133;42.522;24.800;2023-08-17T04:37:07;13.00;;;10.88;;
82495;SDS011;72133;42.522;24.800;2023-08-17T04:39:33;12.55;;;10.68;;
82495;SDS011;72133;42.522;24.800;2023-08-17T04:41:59;15.40;;;12.50;;
82495;SDS011;72133;42.522;24.800;2023-08-17T04:44:25;15.25;;;11.20;;
82495;SDS011;72133;42.522;24.800;2023-08-17T04:46:52;12.77;;;11.48;;
82495;SDS011;72133;42.522;24.800;2023-08-17T04:49:18;13.70;;;12.27;;
82495;SDS011;72133;42.522;24.800;2023-08-17T04:51:44;13.20;;;11.48;;
82495;SDS011;72133;42.522;24.800;2023-08-17T04:54:10;15.43;;;12.63;;
82495;SDS011;72133;42.522;24.800;2023-08-17T04:56:36;12.02;;;10.80;;
82495;SDS011;72133;42.522;24.800;2023-08-17T04:59:02;12.32;;;11.05;;
82495;SDS011;72133;42.522;24.800;2023-08-17T05:01:28;13.23;;;11.82;;
82495;SDS011;72133;42.522;24.800;2023-08-17T05:03:55;13.30;;;11.02;;
82495;SDS011;72133;42.522;24.800;2023-08-17T05:06:21;13.00;;;11.50;;
82495;SDS011;72133;42.522;24.800;2023-08-17T05:08:47;12.55;;;11.35;;
82495;SDS011;72133;42.522;24.800;2023-08-17T05:11:13;12.82;;;11.02;;
82495;SDS011;72133;42.522;24.800;2023-08-17T05:13:39;12.73;;;10.80;;
82495;SDS011;72133;42.522;24.800;2023-08-17T05:16:06;13.60;;;10.80;;
82495;SDS011;72133;42.522;24.800;2023-08-17T05:18:32;12.88;;;10.27;;
82495;SDS011;72133;42.522;24.800;2023-08-17T05:20:58;11.40;;;10.20;;
82495;SDS011;72133;42.522;24.800;2023-08-17T05:23:25;11.40;;;10.18;;
82495;SDS011;72133;42.522;24.800;2023-08-17T05:25:51;13.25;;;10.73;;
82495;SDS011;72133;42.522;24.800;2023-08-17T05:28:17;16.15;;;11.13;;
82495;SDS011;72133;42.522;24.800;2023-08-17T05:30:44;11.63;;;10.43;;
82495;SDS011;72133;42.522;24.800;2023-08-17T05:33:10;11.52;;;10.43;;
82495;SDS011;72133;42.522;24.800;2023-08-17T05:35:36;11.65;;;10.48;;
82495;SDS011;72133;42.522;24.800;2023-08-17T05:38:02;13.10;;;10.23;;
82495;SDS011;72133;42.522;24.800;2023-08-17T05:40:31;13.98;;;9.70;;
82495;SDS011;72133;42.522;24.800;2023-08-17T05:42:58;12.45;;;9.98;;
82495;SDS011;72133;42.522;24.800;2023-08-17T05:45:24;14.35;;;10.82;;
82495;SDS011;72133;42.522;24.800;2023-08-17T05:47:51;10.95;;;9.38;;
82495;SDS011;72133;42.522;24.800;2023-08-17T05:50:17;11.63;;;9.23;;
82495;SDS011;72133;42.522;24.800;2023-08-17T05:52:44;12.00;;;9.77;;
82495;SDS011;72133;42.522;24.800;2023-08-17T05:55:10;11.93;;;9.40;;
82495;SDS011;72133;42.522;24.800;2023-08-17T05:57:36;12.27;;;9.40;;
82495;SDS011;72133;42.522;24.800;2023-08-17T06:00:02;9.98;;;8.82;;
82495;SDS011;72133;42.522;24.800;2023-08-17T06:02:29;11.15;;;9.27;;
82495;SDS011;72133;42.522;24.800;2023-08-17T06:04:55;11.20;;;9.68;;
82495;SDS011;72133;42.522;24.800;2023-08-17T06:07:21;10.85;;;9.43;;
82495;SDS011;72133;42.522;24.800;2023-08-17T06:09:47;12.63;;;9.63;;
82495;SDS011;72133;42.522;24.800;2023-08-17T06:12:13;10.85;;;9.52;;
82495;SDS011;72133;42.522;24.800;2023-08-17T06:14:40;11.32;;;9.10;;
82495;SDS011;72133;42.522;24.800;2023-08-17T06:17:07;10.40;;;9.18;;
82495;SDS011;72133;42.522;24.800;2023-08-17T06:19:33;24.80;;;22.45;;
82495;SDS011;72133;42.522;24.800;2023-08-17T06:22:00;12.75;;;11.52;;
82495;SDS011;72133;42.522;24.800;2023-08-17T06:24:26;10.70;;;9.70;;
82495;SDS011;72133;42.522;24.800;2023-08-17T06:26:52;13.38;;;8.95;;
82495;SDS011;72133;42.522;24.800;2023-08-17T06:29:18;10.52;;;8.63;;
82495;SDS011;72133;42.522;24.800;2023-08-17T06:31:44;12.85;;;7.68;;
82495;SDS011;72133;42.522;24.800;2023-08-17T06:34:11;12.15;;;8.77;;
82495;SDS011;72133;42.522;24.800;2023-08-17T06:36:37;14.75;;;8.50;;
82495;SDS011;72133;42.522;24.800;2023-08-17T06:39:04;9.93;;;8.48;;
82495;SDS011;72133;42.522;24.800;2023-08-17T06:41:31;9.00;;;7.57;;
82495;SDS011;72133;42.522;24.800;2023-08-17T06:43:58;12.02;;;8.02;;
82495;SDS011;72133;42.522;24.800;2023-08-17T06:46:24;11.95;;;10.57;;
82495;SDS011;72133;42.522;24.800;2023-08-17T06:48:51;8.50;;;7.60;;
82495;SDS011;72133;42.522;24.800;2023-08-17T06:51:17;12.98;;;11.48;;
82495;SDS011;72133;42.522;24.800;2023-08-17T06:53:43;11.93;;;7.78;;
82495;SDS011;72133;42.522;24.800;2023-08-17T06:56:10;8.63;;;6.53;;
82495;SDS011;72133;42.522;24.800;2023-08-17T06:58:36;16.67;;;13.20;;
82495;SDS011;72133;42.522;24.800;2023-08-17T07:01:02;21.83;;;17.90;;
82495;SDS011;72133;42.522;24.800;2023-08-17T07:03:29;13.68;;;9.73;;
82495;SDS011;72133;42.522;24.800;2023-08-17T07:05:55;9.07;;;6.97;;
82495;SDS011;72133;42.522;24.800;2023-08-17T07:08:22;9.88;;;7.65;;
82495;SDS011;72133;42.522;24.800;2023-08-17T07:10:48;11.05;;;7.28;;
82495;SDS011;72133;42.522;24.800;2023-08-17T07:13:14;6.47;;;3.65;;
82495;SDS011;72133;42.522;24.800;2023-08-17T07:15:40;5.10;;;3.60;;
82495;SDS011;72133;42.522;24.800;2023-08-17T07:18:07;7.50;;;3.58;;
82495;SDS011;72133;42.522;24.800;2023-08-17T07:20:33;6.80;;;4.03;;
82495;SDS011;72133;42.522;24.800;2023-08-17T07:22:59;6.72;;;3.95;;
82495;SDS011;72133;42.522;24.800;2023-08-17T07:25:25;5.55;;;3.90;;
82495;SDS011;72133;42.522;24.800;2023-08-17T07:27:51;7.07;;;4.57;;
82495;SDS011;72133;42.522;24.800;2023-08-17T07:30:18;7.55;;;4.00;;
82495;SDS011;72133;42.522;24.800;2023-08-17T07:32:44;6.80;;;4.03;;
82495;SDS011;72133;42.522;24.800;2023-08-17T07:35:10;8.43;;;4.38;;
82495;SDS011;72133;42.522;24.800;2023-08-17T07:37:36;5.60;;;4.10;;
82495;SDS011;72133;42.522;24.800;2023-08-17T07:40:02;6.38;;;4.60;;
82495;SDS011;72133;42.522;24.800;2023-08-17T07:42:29;5.72;;;4.00;;
82495;SDS011;72133;42.522;24.800;2023-08-17T07:44:55;7.53;;;3.92;;
82495;SDS011;72133;42.522;24.800;2023-08-17T07:47:21;8.73;;;4.18;;
82495;SDS011;72133;42.522;24.800;2023-08-17T07:49:47;4.95;;;3.60;;
82495;SDS011;72133;42.522;24.800;2023-08-17T07:52:13;7.80;;;3.63;;
82495;SDS011;72133;42.522;24.800;2023-08-17T07:54:40;9.52;;;3.63;;
82495;SDS011;72133;42.522;24.800;2023-08-17T07:57:06;6.70;;;3.38;;
82495;SDS011;72133;42.522;24.800;2023-08-17T07:59:33;5.05;;;3.40;;
82495;SDS011;72133;42.522;24.800;2023-08-17T08:01:59;19.52;;;4.50;;
82495;SDS011;72133;42.522;24.800;2023-08-17T08:04:25;6.78;;;3.17;;
82495;SDS011;72133;42.522;24.800;2023-08-17T08:06:52;6.28;;;2.63;;
82495;SDS011;72133;42.522;24.800;2023-08-17T08:09:18;5.13;;;2.20;;
82495;SDS011;72133;42.522;24.800;2023-08-17T08:11:46;4.75;;;2.70;;
82495;SDS011;72133;42.522;24.800;2023-08-17T08:14:12;4.72;;;2.50;;
82495;SDS011;72133;42.522;24.800;2023-08-17T08:16:42;9.25;;;2.42;;
82495;SDS011;72133;42.522;24.800;2023-08-17T08:19:08;5.35;;;3.05;;
82495;SDS011;72133;42.522;24.800;2023-08-17T08:21:34;4.53;;;2.70;;
82495;SDS011;72133;42.522;24.800;2023-08-17T08:24:00;7.15;;;2.30;;
82495;SDS011;72133;42.522;24.800;2023-08-17T08:26:26;6.13;;;2.22;;
82495;SDS011;72133;42.522;24.800;2023-08-17T08:28:52;4.22;;;2.28;;
82495;SDS011;72133;42.522;24.800;2023-08-17T08:31:19;5.47;;;2.25;;
82495;SDS011;72133;42.522;24.800;2023-08-17T08:33:45;5.72;;;2.20;;
82495;SDS011;72133;42.522;24.800;2023-08-17T08:36:11;7.68;;;2.20;;
82495;SDS011;72133;42.522;24.800;2023-08-17T08:38:37;4.05;;;2.13;;
82495;SDS011;72133;42.522;24.800;2023-08-17T08:41:03;5.28;;;2.35;;
82495;SDS011;72133;42.522;24.800;2023-08-17T08:43:31;5.20;;;2.70;;
82495;SDS011;72133;42.522;24.800;2023-08-17T08:45:58;4.22;;;2.17;;
82495;SDS011;72133;42.522;24.800;2023-08-17T08:48:24;8.32;;;2.50;;
82495;SDS011;72133;42.522;24.800;2023-08-17T08:50:54;4.65;;;2.53;;
82495;SDS011;72133;42.522;24.800;2023-08-17T08:53:23;5.18;;;2.58;;
82495;SDS011;72133;42.522;24.800;2023-08-17T08:56:00;4.88;;;2.33;;
82495;SDS011;72133;42.522;24.800;2023-08-17T08:58:27;4.30;;;2.75;;
82495;SDS011;72133;42.522;24.800;2023-08-17T09:00:55;5.45;;;2.28;;
82495;SDS011;72133;42.522;24.800;2023-08-17T09:03:23;4.88;;;2.30;;
82495;SDS011;72133;42.522;24.800;2023-08-17T09:05:50;6.80;;;2.53;;
82495;SDS011;72133;42.522;24.800;2023-08-17T09:08:20;4.78;;;2.58;;
82495;SDS011;72133;42.522;24.800;2023-08-17T09:10:47;5.78;;;2.40;;
82495;SDS011;72133;42.522;24.800;2023-08-17T09:13:13;6.95;;;3.15;;
82495;SDS011;72133;42.522;24.800;2023-08-17T09:15:40;3.85;;;2.20;;
82495;SDS011;72133;42.522;24.800;2023-08-17T09:18:06;4.28;;;2.33;;
82495;SDS011;72133;42.522;24.800;2023-08-17T09:20:35;7.82;;;2.40;;
82495;SDS011;72133;42.522;24.800;2023-08-17T09:23:04;5.85;;;2.72;;
82495;SDS011;72133;42.522;24.800;2023-08-17T09:25:30;3.88;;;2.38;;
82495;SDS011;72133;42.522;24.800;2023-08-17T09:27:59;5.00;;;2.55;;
82495;SDS011;72133;42.522;24.800;2023-08-17T09:30:33;5.70;;;2.53;;
82495;SDS011;72133;42.522;24.800;2023-08-17T09:33:01;5.90;;;2.33;;
82495;SDS011;72133;42.522;24.800;2023-08-17T09:35:28;11.60;;;2.92;;
82495;SDS011;72133;42.522;24.800;2023-08-17T09:37:57;4.68;;;2.83;;
82495;SDS011;72133;42.522;24.800;2023-08-17T09:40:25;5.07;;;2.35;;
82495;SDS011;72133;42.522;24.800;2023-08-17T09:42:51;5.35;;;2.30;;
82495;SDS011;72133;42.522;24.800;2023-08-17T09:45:19;5.30;;;2.33;;
82495;SDS011;72133;42.522;24.800;2023-08-17T09:47:45;8.05;;;2.60;;
82495;SDS011;72133;42.522;24.800;2023-08-17T09:50:12;5.65;;;2.55;;
82495;SDS011;72133;42.522;24.800;2023-08-17T09:52:38;4.65;;;2.60;;
82495;SDS011;72133;42.522;24.800;2023-08-17T09:55:06;4.05;;;2.47;;
82495;SDS011;72133;42.522;24.800;2023-08-17T09:57:34;3.95;;;2.30;;
82495;SDS011;72133;42.522;24.800;2023-08-17T10:00:00;6.85;;;2.65;;
82495;SDS011;72133;42.522;24.800;2023-08-17T10:02:26;7.07;;;2.90;;
82495;SDS011;72133;42.522;24.800;2023-08-17T10:04:53;6.18;;;2.80;;
82495;SDS011;72133;42.522;24.800;2023-08-17T10:07:19;5.63;;;3.03;;
82495;SDS011;72133;42.522;24.800;2023-08-17T10:09:53;3.97;;;2.45;;
82495;SDS011;72133;42.522;24.800;2023-08-17T10:12:20;4.60;;;2.83;;
82495;SDS011;72133;42.522;24.800;2023-08-17T10:14:49;6.03;;;2.75;;
82495;SDS011;72133;42.522;24.800;2023-08-17T10:17:18;8.77;;;2.40;;
82495;SDS011;72133;42.522;24.800;2023-08-17T10:19:54;4.03;;;2.50;;
82495;SDS011;72133;42.522;24.800;2023-08-17T10:22:33;5.65;;;2.88;;
82495;SDS011;72133;42.522;24.800;2023-08-17T10:25:01;7.03;;;3.15;;
82495;SDS011;72133;42.522;24.800;2023-08-17T10:27:28;5.15;;;2.45;;
82495;SDS011;72133;42.522;24.800;2023-08-17T10:29:54;5.75;;;2.78;;
82495;SDS011;72133;42.522;24.800;2023-08-17T10:32:21;6.90;;;3.33;;
82495;SDS011;72133;42.522;24.800;2023-08-17T10:34:48;4.18;;;2.90;;
82495;SDS011;72133;42.522;24.800;2023-08-17T10:37:15;3.17;;;2.38;;
82495;SDS011;72133;42.522;24.800;2023-08-17T10:39:46;3.40;;;2.50;;
82495;SDS011;72133;42.522;24.800;2023-08-17T10:42:12;7.80;;;2.90;;
82495;SDS011;72133;42.522;24.800;2023-08-17T10:44:39;4.97;;;2.80;;
82495;SDS011;72133;42.522;24.800;2023-08-17T10:50:05;4.90;;;2.97;;
82495;SDS011;72133;42.522;24.800;2023-08-17T10:52:33;6.65;;;2.80;;
82495;SDS011;72133;42.522;24.800;2023-08-17T10:55:09;7.43;;;2.70;;
82495;SDS011;72133;42.522;24.800;2023-08-17T18:01:28;8.80;;;6.72;;
82495;SDS011;72133;42.522;24.800;2023-08-17T18:03:55;9.60;;;6.22;;
82495;SDS011;72133;42.522;24.800;2023-08-17T18:06:21;8.13;;;6.10;;
82495;SDS011;72133;42.522;24.800;2023-08-17T18:08:47;8.52;;;6.30;;
82495;SDS011;72133;42.522;24.800;2023-08-17T18:11:14;10.60;;;6.60;;
82495;SDS011;72133;42.522;24.800;2023-08-17T18:13:40;8.35;;;6.35;;
82495;SDS011;72133;42.522;24.800;2023-08-17T18:16:06;8.82;;;5.95;;
82495;SDS011;72133;42.522;24.800;2023-08-17T18:18:32;11.73;;;6.75;;
82495;SDS011;72133;42.522;24.800;2023-08-17T18:21:04;8.70;;;6.55;;
82495;SDS011;72133;42.522;24.800;2023-08-17T18:23:34;9.52;;;7.05;;
82495;SDS011;72133;42.522;24.800;2023-08-17T18:26:00;7.85;;;6.55;;
82495;SDS011;72133;42.522;24.800;2023-08-17T18:28:26;8.20;;;6.15;;
82495;SDS011;72133;42.522;24.800;2023-08-17T18:30:52;11.68;;;6.00;;
82495;SDS011;72133;42.522;24.800;2023-08-17T18:33:19;11.13;;;6.20;;
82495;SDS011;72133;42.522;24.800;2023-08-17T20:42:30;8.52;;;6.45;;
82495;SDS011;72133;42.522;24.800;2023-08-17T22:56:25;9.20;;;6.90;;
82495;SDS011;72133;42.522;24.800;2023-08-17T22:58:52;9.68;;;6.82;;
82495;SDS011;72133;42.522;24.800;2023-08-17T23:01:18;9.50;;;6.20;;
82495;SDS011;72133;42.522;24.800;2023-08-17T23:03:44;8.30;;;6.72;;
82495;SDS011;72133;42.522;24.800;2023-08-17T23:06:10;7.40;;;6.30;;
82495;SDS011;72133;42.522;24.800;2023-08-17T23:08:37;7.18;;;6.25;;
82495;SDS011;72133;42.522;24.800;2023-08-17T23:11:03;9.43;;;6.53;;
82495;SDS011;72133;42.522;24.800;2023-08-17T23:13:29;8.43;;;6.53;;
82495;SDS011;72133;42.522;24.800;2023-08-17T23:20:47;8.98;;;6.55;;
82495;SDS011;72133;42.522;24.800;2023-08-17T23:23:13;7.47;;;6.68;;
82495;SDS011;72133;42.522;24.800;2023-08-17T23:25:40;8.30;;;6.47;;
82495;SDS011;72133;42.522;24.800;2023-08-17T23:28:06;8.50;;;6.88;;
82495;SDS011;72133;42.522;24.800;2023-08-17T23:30:32;8.68;;;6.60;;
82495;SDS011;72133;42.522;24.800;2023-08-17T23:33:01;8.80;;;7.25;;
82495;SDS011;72133;42.522;24.800;2023-08-17T23:35:27;7.88;;;6.95;;
82495;SDS011;72133;42.522;24.800;2023-08-17T23:37:54;7.95;;;7.15;;
82495;SDS011;72133;42.522;24.800;2023-08-17T23:40:20;8.27;;;6.85;;
82495;SDS011;72133;42.522;24.800;2023-08-17T23:42:46;8.88;;;7.10;;
82495;SDS011;72133;42.522;24.800;2023-08-17T23:45:12;9.10;;;6.57;;
82495;SDS011;72133;42.522;24.800;2023-08-17T23:47:39;8.82;;;7.10;;
82495;SDS011;72133;42.522;24.800;2023-08-17T23:50:05;7.10;;;6.45;;
82495;SDS011;72133;42.522;24.800;2023-08-17T23:52:31;8.95;;;7.03;;
82495;SDS011;72133;42.522;24.800;2023-08-17T23:54:58;8.98;;;7.10;;
82495;SDS011;72133;42.522;24.800;2023-08-17T23:57:24;9.73;;;6.50;;
82495;SDS011;72133;42.522;24.800;2023-08-17T23:59:50;7.82;;;7.05;;
